Thunder radar more information blitzortung!


Radar de pluja more information rain snow radar


Visita la nostra xarxa de llocs de meteo:

Template documentation
and downloads

And another site



No particular awareness of the weather is required.    There are no Weather-warnings

Pagina Historial Weather Underground text

Diari Resum Juny 22, 2017 Unitats:  Tant    Imperial   Mètric
« Previous Dia
SegĂźent Dia »
Diari Setmana Mensual Anual Personalitzada
  Maxima: Minima: Media:
Temperatura: 96.6 °F /  35.9 °C 72.1 °F /  22.3 °C 85.6 °F /  29.8 °C
Punt de rosada: 65.3 °F /  18.5 °C 53.1 °F /  11.7 °C 57.7 °F /  14.3 °C
Humitat: 62 % 30 % 40 %
Wind Speed: 13.8 mph /  22.2 km/h - 5.7 mph /  9.2 km/h
RĂ fegues de vent: 13.8 mph /  22.2 km/h - -
Vent:- - SW
Pression baro: 30.1 in /  1017.8 hPa 30 in /  1014.8 hPa -
Precipitacions: 0 in /  0.0 mm    
Historical Graphs
 
 
Dades de taula per Juny 22, 2017
Temps Temperatura Punt de rosada Pression baro Vent Wind Speed RĂ fegues de vent Humitat Rainfall Rate (Hourly)
00:01 75.4 °F /  24.1 °C 58.6 °F /  14.8 °C 30 in /  1015.8 hPa West 3.5 mph /  5.6 km/h 3.5 mph /  5.6 km/h 56 % 0 in /  0.0 mm
04:55 81.3 °F /  27.4 °C 64 °F /  17.8 °C 30 in /  1014.8 hPa SW 1 mph /  1.6 km/h 4 mph /  6.4 km/h 56 % 0 in /  0.0 mm
05:05 82.6 °F /  28.1 °C 64.8 °F /  18.2 °C 30 in /  1014.8 hPa Calm   3 mph /  4.8 km/h 55 % 0 in /  0.0 mm
05:15 84.2 °F /  29.0 °C 65.1 °F /  18.4 °C 30 in /  1014.8 hPa SSW 1 mph /  1.6 km/h 2 mph /  3.2 km/h 53 % 0 in /  0.0 mm
05:25 84.7 °F /  29.3 °C 64.6 °F /  18.1 °C 30 in /  1014.8 hPa SW 1 mph /  1.6 km/h 2 mph /  3.2 km/h 51 % 0 in /  0.0 mm
05:35 84.6 °F /  29.2 °C 64.4 °F /  18.0 °C 30 in /  1014.8 hPa SW 2 mph /  3.2 km/h 3 mph /  4.8 km/h 51 % 0 in /  0.0 mm
10:38 84.7 °F /  29.3 °C 63.5 °F /  17.5 °C 30 in /  1015.8 hPa SW 4.6 mph /  7.4 km/h 4.6 mph /  7.4 km/h 49 % 0 in /  0.0 mm
10:43 85.8 °F /  29.9 °C 64.6 °F /  18.1 °C 30 in /  1015.8 hPa SSW 3.5 mph /  5.6 km/h 3.5 mph /  5.6 km/h 49 % 0 in /  0.0 mm
10:48 86.2 °F /  30.1 °C 64.2 °F /  17.9 °C 30 in /  1015.8 hPa WSW 3.5 mph /  5.6 km/h 3.5 mph /  5.6 km/h 48 % 0 in /  0.0 mm
10:53 86.7 °F /  30.4 °C 64.8 °F /  18.2 °C 30 in /  1015.8 hPa SW 4.6 mph /  7.4 km/h 4.6 mph /  7.4 km/h 48 % 0 in /  0.0 mm
10:58 87.3 °F /  30.7 °C 65.1 °F /  18.4 °C 30 in /  1016.8 hPa SSW 3.5 mph /  5.6 km/h 3.5 mph /  5.6 km/h 48 % 0 in /  0.0 mm
11:03 87.8 °F /  31.0 °C 64.4 °F /  18.0 °C 30 in /  1016.8 hPa SSE 4.3 mph /  6.9 km/h 4.3 mph /  6.9 km/h 46 % 0 in /  0.0 mm
11:08 87.8 °F /  31.0 °C 64.4 °F /  18.0 °C 30 in /  1016.8 hPa WSW 3.5 mph /  5.6 km/h 3.5 mph /  5.6 km/h 46 % 0 in /  0.0 mm
11:13 87.8 °F /  31.0 °C 63.9 °F /  17.7 °C 30 in /  1015.8 hPa SSE 4.6 mph /  7.4 km/h 4.6 mph /  7.4 km/h 45 % 0 in /  0.0 mm
11:18 89.4 °F /  31.9 °C 64.6 °F /  18.1 °C 30 in /  1015.8 hPa SSW 3.5 mph /  5.6 km/h 3.5 mph /  5.6 km/h 44 % 0 in /  0.0 mm
11:23 90.1 °F /  32.3 °C 64.6 °F /  18.1 °C 30 in /  1015.8 hPa WSW 4.6 mph /  7.4 km/h 4.6 mph /  7.4 km/h 43 % 0 in /  0.0 mm
11:28 90.9 °F /  32.7 °C 65.3 °F /  18.5 °C 30 in /  1015.8 hPa West 2.3 mph /  3.7 km/h 2.3 mph /  3.7 km/h 43 % 0 in /  0.0 mm
11:33 91.4 °F /  33.0 °C 64.4 °F /  18.0 °C 30 in /  1015.8 hPa SW 5.4 mph /  8.7 km/h 5.4 mph /  8.7 km/h 41 % 0 in /  0.0 mm
11:38 91.8 °F /  33.2 °C 64.8 °F /  18.2 °C 30 in /  1015.8 hPa SW 2.3 mph /  3.7 km/h 2.3 mph /  3.7 km/h 41 % 0 in /  0.0 mm
11:43 91.4 °F /  33.0 °C 63.7 °F /  17.6 °C 30 in /  1015.8 hPa SSW 2.6 mph /  4.2 km/h 2.6 mph /  4.2 km/h 40 % 0 in /  0.0 mm
11:48 91.8 °F /  33.2 °C 64 °F /  17.8 °C 30 in /  1015.8 hPa West 3.5 mph /  5.6 km/h 3.5 mph /  5.6 km/h 40 % 0 in /  0.0 mm
11:53 92.3 °F /  33.5 °C 63.9 °F /  17.7 °C 30 in /  1015.8 hPa SSW 4.7 mph /  7.6 km/h 4.7 mph /  7.6 km/h 39 % 0 in /  0.0 mm
11:58 92.3 °F /  33.5 °C 63 °F /  17.2 °C 30 in /  1014.8 hPa NW 4.6 mph /  7.4 km/h 4.6 mph /  7.4 km/h 38 % 0 in /  0.0 mm
12:03 92.7 °F /  33.7 °C 63.3 °F /  17.4 °C 30 in /  1014.8 hPa West 5.8 mph /  9.3 km/h 5.8 mph /  9.3 km/h 38 % 0 in /  0.0 mm
12:08 93.2 °F /  34.0 °C 63.1 °F /  17.3 °C 30 in /  1014.8 hPa WSW 1.4 mph /  2.3 km/h 1.4 mph /  2.3 km/h 37 % 0 in /  0.0 mm
12:13 93.7 °F /  34.3 °C 63.5 °F /  17.5 °C 30 in /  1015.8 hPa WSW 4.6 mph /  7.4 km/h 4.6 mph /  7.4 km/h 37 % 0 in /  0.0 mm
12:18 93.9 °F /  34.4 °C 63 °F /  17.2 °C 30 in /  1015.8 hPa WSW 3.5 mph /  5.6 km/h 3.5 mph /  5.6 km/h 36 % 0 in /  0.0 mm
12:20 94.1 °F /  34.5 °C 63.1 °F /  17.3 °C 30 in /  1015.8 hPa SW 3.5 mph /  5.6 km/h 3.5 mph /  5.6 km/h 36 % 0 in /  0.0 mm
12:25 95 °F /  35.0 °C 62.2 °F /  16.8 °C 30 in /  1015.8 hPa WSW 4.6 mph /  7.4 km/h 4.6 mph /  7.4 km/h 34 % 0 in /  0.0 mm
12:30 95.7 °F /  35.4 °C 63 °F /  17.2 °C 30 in /  1015.8 hPa WSW 3.5 mph /  5.6 km/h 3.6 mph /  5.8 km/h 34 % 0 in /  0.0 mm
12:35 94.3 °F /  34.6 °C 60.8 °F /  16.0 °C 30 in /  1015.8 hPa SE 5.8 mph /  9.3 km/h 5.8 mph /  9.3 km/h 33 % 0 in /  0.0 mm
12:40 94.8 °F /  34.9 °C 61.2 °F /  16.2 °C 30 in /  1015.8 hPa SW 4.6 mph /  7.4 km/h 4.6 mph /  7.4 km/h 33 % 0 in /  0.0 mm
12:45 94.8 °F /  34.9 °C 60.4 °F /  15.8 °C 30 in /  1015.8 hPa SW 5.9 mph /  9.5 km/h 5.9 mph /  9.5 km/h 32 % 0 in /  0.0 mm
12:50 95.4 °F /  35.2 °C 60.8 °F /  16.0 °C 30 in /  1015.8 hPa SW 4.6 mph /  7.4 km/h 4.6 mph /  7.4 km/h 32 % 0 in /  0.0 mm
12:55 95.5 °F /  35.3 °C 60.1 °F /  15.6 °C 30 in /  1015.8 hPa SW 4.7 mph /  7.6 km/h 4.7 mph /  7.6 km/h 31 % 0 in /  0.0 mm
13:00 95.7 °F /  35.4 °C 60.3 °F /  15.7 °C 30 in /  1015.8 hPa WSW 3.6 mph /  5.8 km/h 3.6 mph /  5.8 km/h 31 % 0 in /  0.0 mm
13:05 95.7 °F /  35.4 °C 60.3 °F /  15.7 °C 30 in /  1015.8 hPa SW 5.8 mph /  9.3 km/h 5.8 mph /  9.3 km/h 31 % 0 in /  0.0 mm
13:10 95.5 °F /  35.3 °C 60.1 °F /  15.6 °C 30 in /  1015.8 hPa WSW 8.1 mph /  13.0 km/h 8.1 mph /  13.0 km/h 31 % 0 in /  0.0 mm
13:15 96.6 °F /  35.9 °C 61.9 °F /  16.6 °C 30 in /  1015.8 hPa South 4.6 mph /  7.4 km/h 4.6 mph /  7.4 km/h 32 % 0 in /  0.0 mm
13:20 96.6 °F /  35.9 °C 61 °F /  16.1 °C 30 in /  1015.8 hPa West 8.1 mph /  13.0 km/h 8.1 mph /  13.0 km/h 31 % 0 in /  0.0 mm
13:25 95.9 °F /  35.5 °C 60.4 °F /  15.8 °C 30 in /  1015.8 hPa WSW 8.1 mph /  13.0 km/h 8.1 mph /  13.0 km/h 31 % 0 in /  0.0 mm
13:30 95.9 °F /  35.5 °C 61.3 °F /  16.3 °C 30 in /  1014.8 hPa SW 5.8 mph /  9.3 km/h 5.8 mph /  9.3 km/h 32 % 0 in /  0.0 mm
13:35 96.4 °F /  35.8 °C 61 °F /  16.1 °C 30 in /  1014.8 hPa SW 7.4 mph /  11.9 km/h 7.4 mph /  11.9 km/h 31 % 0 in /  0.0 mm
13:40 96.3 °F /  35.7 °C 61.5 °F /  16.4 °C 30 in /  1014.8 hPa SSW 6.9 mph /  11.1 km/h 6.9 mph /  11.1 km/h 32 % 0 in /  0.0 mm
13:45 95.7 °F /  35.4 °C 59.4 °F /  15.2 °C 30 in /  1014.8 hPa South 10.4 mph /  16.7 km/h 10.4 mph /  16.7 km/h 30 % 0 in /  0.0 mm
13:50 95.4 °F /  35.2 °C 59.9 °F /  15.5 °C 30 in /  1014.8 hPa WSW 8.1 mph /  13.0 km/h 8.1 mph /  13.0 km/h 31 % 0 in /  0.0 mm
13:51 95.2 °F /  35.1 °C 59.7 °F /  15.4 °C 30 in /  1014.8 hPa SW 9.8 mph /  15.8 km/h 9.8 mph /  15.8 km/h 31 % 0 in /  0.0 mm
13:56 95.2 °F /  35.1 °C 59.7 °F /  15.4 °C 30 in /  1014.8 hPa SW 11.5 mph /  18.5 km/h 11.5 mph /  18.5 km/h 31 % 0 in /  0.0 mm
14:01 95.2 °F /  35.1 °C 60.6 °F /  15.9 °C 30 in /  1015.8 hPa WSW 8.1 mph /  13.0 km/h 8.1 mph /  13.0 km/h 32 % 0 in /  0.0 mm
14:06 94.8 °F /  34.9 °C 61.2 °F /  16.2 °C 30 in /  1015.8 hPa SSW 10.7 mph /  17.2 km/h 10.7 mph /  17.2 km/h 33 % 0 in /  0.0 mm
14:11 94.8 °F /  34.9 °C 61.2 °F /  16.2 °C 30 in /  1015.8 hPa WSW 5.8 mph /  9.3 km/h 5.8 mph /  9.3 km/h 33 % 0 in /  0.0 mm
14:16 95.2 °F /  35.1 °C 60.6 °F /  15.9 °C 30 in /  1015.8 hPa SSW 12.7 mph /  20.4 km/h 12.7 mph /  20.4 km/h 32 % 0 in /  0.0 mm
14:21 93.9 °F /  34.4 °C 60.4 °F /  15.8 °C 30 in /  1015.8 hPa SW 12.7 mph /  20.4 km/h 12.7 mph /  20.4 km/h 33 % 0 in /  0.0 mm
14:26 93.7 °F /  34.3 °C 60.3 °F /  15.7 °C 30 in /  1015.8 hPa SW 13.8 mph /  22.2 km/h 13.8 mph /  22.2 km/h 33 % 0 in /  0.0 mm
14:31 94.1 °F /  34.5 °C 60.6 °F /  15.9 °C 30 in /  1014.8 hPa West 8.1 mph /  13.0 km/h 8.1 mph /  13.0 km/h 33 % 0 in /  0.0 mm
14:36 93.9 °F /  34.4 °C 60.4 °F /  15.8 °C 30 in /  1014.8 hPa SSE 6.9 mph /  11.1 km/h 6.9 mph /  11.1 km/h 33 % 0 in /  0.0 mm
14:41 94.1 °F /  34.5 °C 59.7 °F /  15.4 °C 30 in /  1014.8 hPa SW 10.4 mph /  16.7 km/h 10.4 mph /  16.7 km/h 32 % 0 in /  0.0 mm
14:46 94.1 °F /  34.5 °C 59.7 °F /  15.4 °C 30 in /  1014.8 hPa WSW 9.2 mph /  14.8 km/h 9.2 mph /  14.8 km/h 32 % 0 in /  0.0 mm
14:51 94.1 °F /  34.5 °C 59.7 °F /  15.4 °C 30 in /  1014.8 hPa SW 12.7 mph /  20.4 km/h 12.7 mph /  20.4 km/h 32 % 0 in /  0.0 mm
14:56 93.2 °F /  34.0 °C 59 °F /  15.0 °C 30 in /  1014.8 hPa SW 11.5 mph /  18.5 km/h 11.5 mph /  18.5 km/h 32 % 0 in /  0.0 mm
15:01 93.4 °F /  34.1 °C 59.2 °F /  15.1 °C 30 in /  1014.8 hPa West 9.8 mph /  15.8 km/h 9.8 mph /  15.8 km/h 32 % 0 in /  0.0 mm
15:06 93.6 °F /  34.2 °C 59.4 °F /  15.2 °C 30 in /  1014.8 hPa SW 8.1 mph /  13.0 km/h 8.1 mph /  13.0 km/h 32 % 0 in /  0.0 mm
15:11 93.4 °F /  34.1 °C 59.2 °F /  15.1 °C 30 in /  1014.8 hPa WSW 10.4 mph /  16.7 km/h 10.4 mph /  16.7 km/h 32 % 0 in /  0.0 mm
15:16 93.6 °F /  34.2 °C 59.4 °F /  15.2 °C 30 in /  1014.8 hPa SSW 10.4 mph /  16.7 km/h 10.4 mph /  16.7 km/h 32 % 0 in /  0.0 mm
15:21 93 °F /  33.9 °C 58.8 °F /  14.9 °C 30 in /  1014.8 hPa WSW 11.5 mph /  18.5 km/h 11.5 mph /  18.5 km/h 32 % 0 in /  0.0 mm
15:26 93.4 °F /  34.1 °C 58.3 °F /  14.6 °C 30 in /  1014.8 hPa SW 10.5 mph /  16.9 km/h 10.5 mph /  16.9 km/h 31 % 0 in /  0.0 mm
15:31 93.6 °F /  34.2 °C 58.5 °F /  14.7 °C 30 in /  1014.8 hPa SSW 8.1 mph /  13.0 km/h 8.1 mph /  13.0 km/h 31 % 0 in /  0.0 mm
15:36 94.1 °F /  34.5 °C 57.9 °F /  14.4 °C 30 in /  1014.8 hPa South 6.9 mph /  11.1 km/h 6.9 mph /  11.1 km/h 30 % 0 in /  0.0 mm
15:41 93 °F /  33.9 °C 57 °F /  13.9 °C 30 in /  1014.8 hPa WSW 10.4 mph /  16.7 km/h 10.4 mph /  16.7 km/h 30 % 0 in /  0.0 mm
15:46 93.9 °F /  34.4 °C 57.7 °F /  14.3 °C 30 in /  1014.8 hPa WSW 8.1 mph /  13.0 km/h 8.1 mph /  13.0 km/h 30 % 0 in /  0.0 mm
15:51 93.4 °F /  34.1 °C 57.4 °F /  14.1 °C 30 in /  1014.8 hPa SSW 13 mph /  20.9 km/h 13 mph /  20.9 km/h 30 % 0 in /  0.0 mm
15:56 93.4 °F /  34.1 °C 57.4 °F /  14.1 °C 30 in /  1014.8 hPa SW 6.9 mph /  11.1 km/h 6.9 mph /  11.1 km/h 30 % 0 in /  0.0 mm
16:01 92.8 °F /  33.8 °C 56.8 °F /  13.8 °C 30 in /  1014.8 hPa SSW 10.4 mph /  16.7 km/h 10.4 mph /  16.7 km/h 30 % 0 in /  0.0 mm
16:06 92.5 °F /  33.6 °C 57.4 °F /  14.1 °C 30 in /  1014.8 hPa WSW 9.2 mph /  14.8 km/h 9.2 mph /  14.8 km/h 31 % 0 in /  0.0 mm
16:11 92.1 °F /  33.4 °C 57 °F /  13.9 °C 30 in /  1014.8 hPa WSW 10.4 mph /  16.7 km/h 10.4 mph /  16.7 km/h 31 % 0 in /  0.0 mm
16:16 92.3 °F /  33.5 °C 57.4 °F /  14.1 °C 30 in /  1014.8 hPa SW 13.8 mph /  22.2 km/h 13.8 mph /  22.2 km/h 31 % 0 in /  0.0 mm
16:21 92.1 °F /  33.4 °C 57 °F /  13.9 °C 30 in /  1014.8 hPa South 10.4 mph /  16.7 km/h 10.4 mph /  16.7 km/h 31 % 0 in /  0.0 mm
16:26 91.8 °F /  33.2 °C 55.9 °F /  13.3 °C 30 in /  1014.8 hPa SW 13.8 mph /  22.2 km/h 13.8 mph /  22.2 km/h 30 % 0 in /  0.0 mm
16:31 91.2 °F /  32.9 °C 55.6 °F /  13.1 °C 30 in /  1014.8 hPa South 12.7 mph /  20.4 km/h 12.7 mph /  20.4 km/h 30 % 0 in /  0.0 mm
16:36 91 °F /  32.8 °C 56.1 °F /  13.4 °C 30 in /  1014.8 hPa SSW 6 mph /  9.7 km/h 6 mph /  9.7 km/h 31 % 0 in /  0.0 mm
16:41 90.3 °F /  32.4 °C 55.6 °F /  13.1 °C 30 in /  1014.8 hPa SW 13.8 mph /  22.2 km/h 13.8 mph /  22.2 km/h 31 % 0 in /  0.0 mm
16:46 91.2 °F /  32.9 °C 56.5 °F /  13.6 °C 30 in /  1014.8 hPa SW 9.2 mph /  14.8 km/h 9.2 mph /  14.8 km/h 31 % 0 in /  0.0 mm
16:51 91 °F /  32.8 °C 56.1 °F /  13.4 °C 30 in /  1014.8 hPa West 10.2 mph /  16.4 km/h 10.2 mph /  16.4 km/h 31 % 0 in /  0.0 mm
16:56 90.9 °F /  32.7 °C 55.9 °F /  13.3 °C 30 in /  1014.8 hPa SW 9.2 mph /  14.8 km/h 9.2 mph /  14.8 km/h 31 % 0 in /  0.0 mm
17:01 90.1 °F /  32.3 °C 55.4 °F /  13.0 °C 30 in /  1015.8 hPa South 13.8 mph /  22.2 km/h 13.8 mph /  22.2 km/h 31 % 0 in /  0.0 mm
17:06 90.1 °F /  32.3 °C 55.4 °F /  13.0 °C 30 in /  1015.8 hPa SSW 12.7 mph /  20.4 km/h 12.7 mph /  20.4 km/h 31 % 0 in /  0.0 mm
17:11 90.1 °F /  32.3 °C 55.4 °F /  13.0 °C 30 in /  1015.8 hPa SSW 8.1 mph /  13.0 km/h 8.1 mph /  13.0 km/h 31 % 0 in /  0.0 mm
17:16 89.6 °F /  32.0 °C 55 °F /  12.8 °C 30 in /  1015.8 hPa SW 8.1 mph /  13.0 km/h 8.1 mph /  13.0 km/h 31 % 0 in /  0.0 mm
17:21 89.2 °F /  31.8 °C 53.8 °F /  12.1 °C 30 in /  1015.8 hPa SW 10.4 mph /  16.7 km/h 10.4 mph /  16.7 km/h 30 % 0 in /  0.0 mm
17:26 89.2 °F /  31.8 °C 54.7 °F /  12.6 °C 30 in /  1015.8 hPa SW 10.4 mph /  16.7 km/h 10.4 mph /  16.7 km/h 31 % 0 in /  0.0 mm
17:31 89.1 °F /  31.7 °C 53.6 °F /  12.0 °C 30 in /  1015.8 hPa WSW 5.9 mph /  9.5 km/h 5.9 mph /  9.5 km/h 30 % 0 in /  0.0 mm
17:36 89.4 °F /  31.9 °C 54.9 °F /  12.7 °C 30 in /  1015.8 hPa WSW 13.2 mph /  21.2 km/h 13.2 mph /  21.2 km/h 31 % 0 in /  0.0 mm
17:41 89.2 °F /  31.8 °C 54.7 °F /  12.6 °C 30 in /  1015.8 hPa SW 12.7 mph /  20.4 km/h 12.7 mph /  20.4 km/h 31 % 0 in /  0.0 mm
17:46 88.3 °F /  31.3 °C 53.1 °F /  11.7 °C 30 in /  1014.8 hPa SW 11.5 mph /  18.5 km/h 11.5 mph /  18.5 km/h 30 % 0 in /  0.0 mm
17:51 88.7 °F /  31.5 °C 53.2 °F /  11.8 °C 30 in /  1014.8 hPa South 9.2 mph /  14.8 km/h 9.2 mph /  14.8 km/h 30 % 0 in /  0.0 mm
17:56 88.9 °F /  31.6 °C 54.3 °F /  12.4 °C 30 in /  1014.8 hPa SW 8.1 mph /  13.0 km/h 8.1 mph /  13.0 km/h 31 % 0 in /  0.0 mm
18:01 88.7 °F /  31.5 °C 54.1 °F /  12.3 °C 30 in /  1014.8 hPa SSW 9.2 mph /  14.8 km/h 9.2 mph /  14.8 km/h 31 % 0 in /  0.0 mm
18:06 88.9 °F /  31.6 °C 54.3 °F /  12.4 °C 30 in /  1014.8 hPa WNW 8.1 mph /  13.0 km/h 8.1 mph /  13.0 km/h 31 % 0 in /  0.0 mm
18:11 88.9 °F /  31.6 °C 54.3 °F /  12.4 °C 30 in /  1014.8 hPa South 6.9 mph /  11.1 km/h 6.9 mph /  11.1 km/h 31 % 0 in /  0.0 mm
18:16 88.3 °F /  31.3 °C 54.7 °F /  12.6 °C 30 in /  1014.8 hPa WSW 8.1 mph /  13.0 km/h 8.1 mph /  13.0 km/h 32 % 0 in /  0.0 mm
18:21 88.3 °F /  31.3 °C 54.7 °F /  12.6 °C 30 in /  1014.8 hPa SW 5.8 mph /  9.3 km/h 5.8 mph /  9.3 km/h 32 % 0 in /  0.0 mm
18:26 88.3 °F /  31.3 °C 55.6 °F /  13.1 °C 30 in /  1014.8 hPa SSW 8.1 mph /  13.0 km/h 8.1 mph /  13.0 km/h 33 % 0 in /  0.0 mm
18:31 88.3 °F /  31.3 °C 55.6 °F /  13.1 °C 30 in /  1015.8 hPa South 5.8 mph /  9.3 km/h 5.8 mph /  9.3 km/h 33 % 0 in /  0.0 mm
18:36 87.8 °F /  31.0 °C 55 °F /  12.8 °C 30 in /  1015.8 hPa SW 5.8 mph /  9.3 km/h 5.8 mph /  9.3 km/h 33 % 0 in /  0.0 mm
18:41 87.8 °F /  31.0 °C 55 °F /  12.8 °C 30 in /  1015.8 hPa SW 11.5 mph /  18.5 km/h 11.5 mph /  18.5 km/h 33 % 0 in /  0.0 mm
18:46 87.8 °F /  31.0 °C 55.9 °F /  13.3 °C 30 in /  1014.8 hPa NW 4.6 mph /  7.4 km/h 4.6 mph /  7.4 km/h 34 % 0 in /  0.0 mm
18:51 87.6 °F /  30.9 °C 55 °F /  12.8 °C 30 in /  1014.8 hPa WSW 3.8 mph /  6.1 km/h 3.8 mph /  6.1 km/h 33 % 0 in /  0.0 mm
18:56 87.3 °F /  30.7 °C 54.7 °F /  12.6 °C 30 in /  1014.8 hPa West 9.2 mph /  14.8 km/h 9.2 mph /  14.8 km/h 33 % 0 in /  0.0 mm
19:01 87.4 °F /  30.8 °C 54.9 °F /  12.7 °C 30 in /  1014.8 hPa South 7.1 mph /  11.4 km/h 7.1 mph /  11.4 km/h 33 % 0 in /  0.0 mm
19:06 87.3 °F /  30.7 °C 55.6 °F /  13.1 °C 30 in /  1014.8 hPa WSW 4.6 mph /  7.4 km/h 4.6 mph /  7.4 km/h 34 % 0 in /  0.0 mm
19:11 87.1 °F /  30.6 °C 55.2 °F /  12.9 °C 30 in /  1014.8 hPa SSW 4.6 mph /  7.4 km/h 4.6 mph /  7.4 km/h 34 % 0 in /  0.0 mm
19:15 75.2 °F /  24.0 °C 55.8 °F /  13.2 °C 30.1 in /  1017.8 hPa SW 3 mph /  4.8 km/h 3 mph /  4.8 km/h 51 % 0 in /  0.0 mm
19:16 86.9 °F /  30.5 °C 55.2 °F /  12.9 °C 30 in /  1014.8 hPa SW 8.5 mph /  13.7 km/h 8.5 mph /  13.7 km/h 34 % 0 in /  0.0 mm
19:21 86.2 °F /  30.1 °C 54.5 °F /  12.5 °C 30 in /  1014.8 hPa South 5.8 mph /  9.3 km/h 5.8 mph /  9.3 km/h 34 % 0 in /  0.0 mm
19:25 75.2 °F /  24.0 °C 56.8 °F /  13.8 °C 30.1 in /  1017.8 hPa SW 1 mph /  1.6 km/h 3 mph /  4.8 km/h 53 % 0 in /  0.0 mm
19:26 86 °F /  30.0 °C 54.3 °F /  12.4 °C 30 in /  1014.8 hPa SSE 5.8 mph /  9.3 km/h 5.8 mph /  9.3 km/h 34 % 0 in /  0.0 mm
19:31 85.5 °F /  29.7 °C 54.7 °F /  12.6 °C 30 in /  1015.8 hPa SW 4.6 mph /  7.4 km/h 4.6 mph /  7.4 km/h 35 % 0 in /  0.0 mm
19:35 75 °F /  23.9 °C 57.2 °F /  14.0 °C 30.1 in /  1017.8 hPa WSW 2 mph /  3.2 km/h 3 mph /  4.8 km/h 54 % 0 in /  0.0 mm
19:36 85.3 °F /  29.6 °C 54.5 °F /  12.5 °C 30 in /  1015.8 hPa WSW 4.6 mph /  7.4 km/h 4.6 mph /  7.4 km/h 35 % 0 in /  0.0 mm
19:41 84.9 °F /  29.4 °C 55 °F /  12.8 °C 30 in /  1015.8 hPa SE 2.3 mph /  3.7 km/h 2.3 mph /  3.7 km/h 36 % 0 in /  0.0 mm
19:45 74.8 °F /  23.8 °C 57.6 °F /  14.2 °C 30.1 in /  1017.8 hPa SW 2 mph /  3.2 km/h 3 mph /  4.8 km/h 55 % 0 in /  0.0 mm
19:46 85.1 °F /  29.5 °C 55 °F /  12.8 °C 30 in /  1015.8 hPa WSW 3.5 mph /  5.6 km/h 3.5 mph /  5.6 km/h 36 % 0 in /  0.0 mm
19:51 84.6 °F /  29.2 °C 54.7 °F /  12.6 °C 30 in /  1015.8 hPa West 5.8 mph /  9.3 km/h 5.8 mph /  9.3 km/h 36 % 0 in /  0.0 mm
19:55 74.8 °F /  23.8 °C 58.1 °F /  14.5 °C 30.1 in /  1017.8 hPa WSW 1 mph /  1.6 km/h 3 mph /  4.8 km/h 56 % 0 in /  0.0 mm
19:56 84.4 °F /  29.1 °C 54.5 °F /  12.5 °C 30 in /  1015.8 hPa SW 1.4 mph /  2.3 km/h   36 % 0 in /  0.0 mm
20:01 84.2 °F /  29.0 °C 54.3 °F /  12.4 °C 30 in /  1015.8 hPa WSW 2.3 mph /  3.7 km/h 2.3 mph /  3.7 km/h 36 % 0 in /  0.0 mm
20:05 74.7 °F /  23.7 °C 57.9 °F /  14.4 °C 30.1 in /  1017.8 hPa WSW 2 mph /  3.2 km/h 3 mph /  4.8 km/h 56 % 0 in /  0.0 mm
20:06 84.2 °F /  29.0 °C 55 °F /  12.8 °C 30 in /  1015.8 hPa WSW 4.6 mph /  7.4 km/h 4.6 mph /  7.4 km/h 37 % 0 in /  0.0 mm
20:11 83.8 °F /  28.8 °C 55.6 °F /  13.1 °C 30 in /  1015.8 hPa WSW 3.8 mph /  6.1 km/h 3.8 mph /  6.1 km/h 38 % 0 in /  0.0 mm
20:15 74.5 °F /  23.6 °C 58.3 °F /  14.6 °C 30.1 in /  1017.8 hPa SW 2 mph /  3.2 km/h 3 mph /  4.8 km/h 57 % 0 in /  0.0 mm
20:16 83.5 °F /  28.6 °C 55.2 °F /  12.9 °C 30 in /  1015.8 hPa South 6.9 mph /  11.1 km/h 6.9 mph /  11.1 km/h 38 % 0 in /  0.0 mm
20:21 83.1 °F /  28.4 °C 54.9 °F /  12.7 °C 30 in /  1015.8 hPa SW 6.9 mph /  11.1 km/h 6.9 mph /  11.1 km/h 38 % 0 in /  0.0 mm
20:25 74.3 °F /  23.5 °C 57.6 °F /  14.2 °C 30.1 in /  1017.8 hPa SW 3 mph /  4.8 km/h 4 mph /  6.4 km/h 56 % 0 in /  0.0 mm
20:26 82.9 °F /  28.3 °C 55.4 °F /  13.0 °C 30 in /  1015.8 hPa SW 3.3 mph /  5.3 km/h 3.3 mph /  5.3 km/h 39 % 0 in /  0.0 mm
20:31 82.8 °F /  28.2 °C 55.2 °F /  12.9 °C 30 in /  1015.8 hPa SW 3.5 mph /  5.6 km/h 3.5 mph /  5.6 km/h 39 % 0 in /  0.0 mm
20:35 74.3 °F /  23.5 °C 57.6 °F /  14.2 °C 30.1 in /  1017.8 hPa SW 3 mph /  4.8 km/h 4 mph /  6.4 km/h 56 % 0 in /  0.0 mm
20:36 82.4 °F /  28.0 °C 55 °F /  12.8 °C 30 in /  1015.8 hPa SW 4.6 mph /  7.4 km/h 4.6 mph /  7.4 km/h 39 % 0 in /  0.0 mm
20:41 82.2 °F /  27.9 °C 54.9 °F /  12.7 °C 30 in /  1015.8 hPa SW 4.6 mph /  7.4 km/h 4.6 mph /  7.4 km/h 39 % 0 in /  0.0 mm
20:45 74.3 °F /  23.5 °C 57.6 °F /  14.2 °C 30.1 in /  1017.8 hPa SW 2 mph /  3.2 km/h 3 mph /  4.8 km/h 56 % 0 in /  0.0 mm
20:46 81.9 °F /  27.7 °C 54.5 °F /  12.5 °C 30 in /  1015.8 hPa SW 5.8 mph /  9.3 km/h 5.8 mph /  9.3 km/h 39 % 0 in /  0.0 mm
20:48 81.9 °F /  27.7 °C 54.5 °F /  12.5 °C 30 in /  1015.8 hPa SW 4.6 mph /  7.4 km/h 4.6 mph /  7.4 km/h 39 % 0 in /  0.0 mm
20:53 81.5 °F /  27.5 °C 54.1 °F /  12.3 °C 30 in /  1015.8 hPa West 5.9 mph /  9.5 km/h 5.9 mph /  9.5 km/h 39 % 0 in /  0.0 mm
20:55 73.9 °F /  23.3 °C 57.7 °F /  14.3 °C 30 in /  1016.8 hPa WSW 2 mph /  3.2 km/h 3 mph /  4.8 km/h 57 % 0 in /  0.0 mm
20:58 81.1 °F /  27.3 °C 53.8 °F /  12.1 °C 30 in /  1015.8 hPa SW 4.6 mph /  7.4 km/h 4.6 mph /  7.4 km/h 39 % 0 in /  0.0 mm
21:03 80.8 °F /  27.1 °C 54.1 °F /  12.3 °C 30 in /  1014.8 hPa SW 3.6 mph /  5.8 km/h 3.6 mph /  5.8 km/h 40 % 0 in /  0.0 mm
21:05 73.9 °F /  23.3 °C 57.7 °F /  14.3 °C 30.1 in /  1017.8 hPa WSW 1 mph /  1.6 km/h 2 mph /  3.2 km/h 57 % 0 in /  0.0 mm
21:08 80.6 °F /  27.0 °C 54.7 °F /  12.6 °C 30 in /  1014.8 hPa WSW 3.5 mph /  5.6 km/h 3.5 mph /  5.6 km/h 41 % 0 in /  0.0 mm
21:13 80.4 °F /  26.9 °C 55.2 °F /  12.9 °C 30 in /  1014.8 hPa SW 4.6 mph /  7.4 km/h 4.6 mph /  7.4 km/h 42 % 0 in /  0.0 mm
21:15 73.8 °F /  23.2 °C 58.1 °F /  14.5 °C 30.1 in /  1017.8 hPa WSW 2 mph /  3.2 km/h 3 mph /  4.8 km/h 58 % 0 in /  0.0 mm
21:18 80.1 °F /  26.7 °C 54.9 °F /  12.7 °C 30 in /  1014.8 hPa SW 4.6 mph /  7.4 km/h 4.6 mph /  7.4 km/h 42 % 0 in /  0.0 mm
21:23 80.1 °F /  26.7 °C 54.9 °F /  12.7 °C 30 in /  1014.8 hPa West 4.6 mph /  7.4 km/h 4.6 mph /  7.4 km/h 42 % 0 in /  0.0 mm
21:25 73.4 °F /  23.0 °C 57.7 °F /  14.3 °C 30 in /  1016.8 hPa SW 2 mph /  3.2 km/h 2 mph /  3.2 km/h 58 % 0 in /  0.0 mm
21:28 79.9 °F /  26.6 °C 54.7 °F /  12.6 °C 30 in /  1014.8 hPa WSW 3.5 mph /  5.6 km/h 3.5 mph /  5.6 km/h 42 % 0 in /  0.0 mm
21:33 79.7 °F /  26.5 °C 54.7 °F /  12.6 °C 30 in /  1014.8 hPa SW 5.8 mph /  9.3 km/h 5.8 mph /  9.3 km/h 42 % 0 in /  0.0 mm
21:35 73.2 °F /  22.9 °C 57.9 °F /  14.4 °C 30.1 in /  1017.8 hPa WSW 2 mph /  3.2 km/h 2 mph /  3.2 km/h 59 % 0 in /  0.0 mm
21:38 79.3 °F /  26.3 °C 54.3 °F /  12.4 °C 30 in /  1014.8 hPa SW 3.8 mph /  6.1 km/h 3.8 mph /  6.1 km/h 42 % 0 in /  0.0 mm
21:43 79.2 °F /  26.2 °C 54.1 °F /  12.3 °C 30 in /  1014.8 hPa SW 4.6 mph /  7.4 km/h 4.6 mph /  7.4 km/h 42 % 0 in /  0.0 mm
21:45 73.2 °F /  22.9 °C 57.9 °F /  14.4 °C 30.1 in /  1017.8 hPa WSW 2 mph /  3.2 km/h 3 mph /  4.8 km/h 59 % 0 in /  0.0 mm
21:48 79 °F /  26.1 °C 54.7 °F /  12.6 °C 30 in /  1015.8 hPa West 6 mph /  9.7 km/h 6 mph /  9.7 km/h 43 % 0 in /  0.0 mm
21:53 78.8 °F /  26.0 °C 54.3 °F /  12.4 °C 30 in /  1015.8 hPa SW 3.8 mph /  6.1 km/h 3.8 mph /  6.1 km/h 43 % 0 in /  0.0 mm
21:55 73 °F /  22.8 °C 57.9 °F /  14.4 °C 30.1 in /  1017.8 hPa WSW 2 mph /  3.2 km/h 2 mph /  3.2 km/h 59 % 0 in /  0.0 mm
21:58 78.6 °F /  25.9 °C 54.1 °F /  12.3 °C 30 in /  1015.8 hPa WSW 3.5 mph /  5.6 km/h 3.5 mph /  5.6 km/h 43 % 0 in /  0.0 mm
22:03 78.4 °F /  25.8 °C 54.1 °F /  12.3 °C 30 in /  1015.8 hPa WSW 4.6 mph /  7.4 km/h 4.6 mph /  7.4 km/h 43 % 0 in /  0.0 mm
22:05 72.9 °F /  22.7 °C 58.3 °F /  14.6 °C 30.1 in /  1017.8 hPa SW 2 mph /  3.2 km/h 3 mph /  4.8 km/h 60 % 0 in /  0.0 mm
22:08 78.3 °F /  25.7 °C 54 °F /  12.2 °C 30 in /  1015.8 hPa SW 7.1 mph /  11.4 km/h 7.1 mph /  11.4 km/h 43 % 0 in /  0.0 mm
22:13 78.1 °F /  25.6 °C 53.8 °F /  12.1 °C 30 in /  1015.8 hPa SW 4.6 mph /  7.4 km/h 4.6 mph /  7.4 km/h 43 % 0 in /  0.0 mm
22:15 72.7 °F /  22.6 °C 57.9 °F /  14.4 °C 30.1 in /  1017.8 hPa SW 2 mph /  3.2 km/h 3 mph /  4.8 km/h 60 % 0 in /  0.0 mm
22:18 78.1 °F /  25.6 °C 53.8 °F /  12.1 °C 30 in /  1014.8 hPa West 3.8 mph /  6.1 km/h 3.8 mph /  6.1 km/h 43 % 0 in /  0.0 mm
22:23 78.1 °F /  25.6 °C 54.3 °F /  12.4 °C 30 in /  1014.8 hPa WSW 4.6 mph /  7.4 km/h 4.6 mph /  7.4 km/h 44 % 0 in /  0.0 mm
22:25 72.5 °F /  22.5 °C 58.3 °F /  14.6 °C 30.1 in /  1017.8 hPa SW 1 mph /  1.6 km/h 4 mph /  6.4 km/h 61 % 0 in /  0.0 mm
22:28 77.9 °F /  25.5 °C 54.1 °F /  12.3 °C 30 in /  1014.8 hPa South 2.4 mph /  3.9 km/h 2.4 mph /  3.9 km/h 44 % 0 in /  0.0 mm
22:30 77.9 °F /  25.5 °C 54.1 °F /  12.3 °C 30 in /  1016.8 hPa WSW 2.3 mph /  3.7 km/h 2.3 mph /  3.7 km/h 44 % 0 in /  0.0 mm
22:35 77.7 °F /  25.4 °C 54.1 °F /  12.3 °C 30 in /  1016.8 hPa West 4.6 mph /  7.4 km/h 4.6 mph /  7.4 km/h 44 % 0 in /  0.0 mm
22:40 77.5 °F /  25.3 °C 54 °F /  12.2 °C 30 in /  1016.8 hPa WSW 4.6 mph /  7.4 km/h 4.6 mph /  7.4 km/h 44 % 0 in /  0.0 mm
22:45 77.4 °F /  25.2 °C 54.3 °F /  12.4 °C 30 in /  1015.8 hPa SW 5.8 mph /  9.3 km/h 5.8 mph /  9.3 km/h 45 % 0 in /  0.0 mm
22:50 77.2 °F /  25.1 °C 54.1 °F /  12.3 °C 30 in /  1015.8 hPa SW 5.8 mph /  9.3 km/h 5.8 mph /  9.3 km/h 45 % 0 in /  0.0 mm
22:55 77 °F /  25.0 °C 54 °F /  12.2 °C 30 in /  1015.8 hPa SW 5.8 mph /  9.3 km/h 5.8 mph /  9.3 km/h 45 % 0 in /  0.0 mm
23:00 77 °F /  25.0 °C 54.7 °F /  12.6 °C 30 in /  1016.8 hPa WSW 3.5 mph /  5.6 km/h 3.5 mph /  5.6 km/h 46 % 0 in /  0.0 mm
23:01 77 °F /  25.0 °C 54.7 °F /  12.6 °C 30 in /  1016.8 hPa WSW 3.6 mph /  5.8 km/h 3.6 mph /  5.8 km/h 46 % 0 in /  0.0 mm
23:05 72.3 °F /  22.4 °C 58.6 °F /  14.8 °C 30 in /  1016.8 hPa WSW 2 mph /  3.2 km/h 3 mph /  4.8 km/h 62 % 0 in /  0.0 mm
23:06 77 °F /  25.0 °C 54.7 °F /  12.6 °C 30 in /  1016.8 hPa WSW 3.5 mph /  5.6 km/h 3.5 mph /  5.6 km/h 46 % 0 in /  0.0 mm
23:11 76.8 °F /  24.9 °C 55 °F /  12.8 °C 30 in /  1016.8 hPa SW 4.6 mph /  7.4 km/h 4.6 mph /  7.4 km/h 47 % 0 in /  0.0 mm
23:15 72.1 °F /  22.3 °C 58.5 °F /  14.7 °C 30 in /  1016.8 hPa WSW 1 mph /  1.6 km/h 3 mph /  4.8 km/h 62 % 0 in /  0.0 mm
23:16 76.6 °F /  24.8 °C 54.9 °F /  12.7 °C 30.1 in /  1017.8 hPa SW 4.6 mph /  7.4 km/h 4.6 mph /  7.4 km/h 47 % 0 in /  0.0 mm
23:21 76.5 °F /  24.7 °C 54.7 °F /  12.6 °C 30.1 in /  1017.8 hPa SW 3.1 mph /  5.0 km/h 3.1 mph /  5.0 km/h 47 % 0 in /  0.0 mm
23:25 72.3 °F /  22.4 °C 58.6 °F /  14.8 °C 30.1 in /  1017.8 hPa WSW 2 mph /  3.2 km/h 2 mph /  3.2 km/h 62 % 0 in /  0.0 mm
23:26 76.3 °F /  24.6 °C 55 °F /  12.8 °C 30.1 in /  1017.8 hPa SW 2.3 mph /  3.7 km/h 2.3 mph /  3.7 km/h 48 % 0 in /  0.0 mm
23:31 76.3 °F /  24.6 °C 55 °F /  12.8 °C 30.1 in /  1017.8 hPa SW 2.3 mph /  3.7 km/h 2.3 mph /  3.7 km/h 48 % 0 in /  0.0 mm
23:35 72.5 °F /  22.5 °C 58.3 °F /  14.6 °C 30.1 in /  1017.8 hPa West 2 mph /  3.2 km/h 3 mph /  4.8 km/h 61 % 0 in /  0.0 mm
23:36 76.1 °F /  24.5 °C 55 °F /  12.8 °C 30.1 in /  1017.8 hPa West 3.5 mph /  5.6 km/h 3.5 mph /  5.6 km/h 48 % 0 in /  0.0 mm
23:41 76.1 °F /  24.5 °C 55 °F /  12.8 °C 30.1 in /  1017.8 hPa WSW 2.3 mph /  3.7 km/h 2.3 mph /  3.7 km/h 48 % 0 in /  0.0 mm
23:45 72.5 °F /  22.5 °C 58.3 °F /  14.6 °C 30.1 in /  1017.8 hPa West 3 mph /  4.8 km/h 3 mph /  4.8 km/h 61 % 0 in /  0.0 mm
23:46 76.1 °F /  24.5 °C 55.6 °F /  13.1 °C 30.1 in /  1017.8 hPa West 2.3 mph /  3.7 km/h 2.3 mph /  3.7 km/h 49 % 0 in /  0.0 mm
23:51 75.9 °F /  24.4 °C 55.4 °F /  13.0 °C 30.1 in /  1017.8 hPa WSW 3.5 mph /  5.6 km/h 3.5 mph /  5.6 km/h 49 % 0 in /  0.0 mm
23:55 72.3 °F /  22.4 °C 58.6 °F /  14.8 °C 30.1 in /  1017.8 hPa West 2 mph /  3.2 km/h 3 mph /  4.8 km/h 62 % 0 in /  0.0 mm
23:56 75.7 °F /  24.3 °C 55.8 °F /  13.2 °C 30.1 in /  1017.8 hPa SW 2.4 mph /  3.9 km/h 2.4 mph /  3.9 km/h 50 % 0 in /  0.0 mm
Meteo Sesrovires
Elogis d' Weather Underground - 3.5 mb

Guio original per  Jim McMurry - jmcmurry@mwt.net Adaptat per a la plantilla per  Wim van der Kuil - Leuven-Template.eu

Trobareu la nostra informacio del temps tambe a:

Weather Underground

AWEKAS